createdAt,value
2022-09-26T00:00:03.743Z,77.67
2022-09-26T00:03:34.905Z,67.67
2022-09-26T00:06:37.037Z,68.00
2022-09-26T00:09:39.407Z,68.33
2022-09-26T00:12:41.413Z,69.00
2022-09-26T00:15:43.680Z,66.33
2022-09-26T00:18:49.511Z,63.33
2022-09-26T00:21:52.283Z,69.00
2022-09-26T00:24:54.429Z,67.67
2022-09-26T00:27:56.670Z,65.00
2022-09-26T00:31:07.166Z,69.00
2022-09-26T00:34:14.690Z,67.33
2022-09-26T00:37:17.317Z,68.33
2022-09-26T00:40:19.696Z,68.33
2022-09-26T00:43:27.866Z,70.00
2022-09-26T00:46:37.566Z,66.67
2022-09-26T00:49:42.563Z,62.67
2022-09-26T00:52:59.588Z,66.00
2022-09-26T00:56:06.365Z,70.00
2022-09-26T00:59:11.391Z,67.67
2022-09-26T01:02:13.680Z,67.33
2022-09-26T01:05:19.262Z,63.33
2022-09-26T01:08:26.925Z,64.67
2022-09-26T01:11:29.864Z,61.33
2022-09-26T01:14:32.945Z,65.67
2022-09-26T01:17:38.049Z,66.33
2022-09-26T01:20:52.186Z,67.33
2022-09-26T01:23:54.357Z,64.33
2022-09-26T01:27:09.493Z,73.00
2022-09-26T01:30:28.273Z,63.00
2022-09-26T01:33:30.344Z,69.67
2022-09-26T01:36:55.057Z,67.67
2022-09-26T01:40:10.520Z,69.67
2022-09-26T01:43:45.804Z,66.67
2022-09-26T01:46:47.812Z,65.00
2022-09-26T01:50:16.368Z,69.33
2022-09-26T01:53:25.595Z,64.00
2022-09-26T01:56:37.574Z,71.33
2022-09-26T01:59:53.478Z,66.67
2022-09-26T02:02:56.927Z,63.00
2022-09-26T02:06:03.869Z,71.33
2022-09-26T02:09:23.225Z,67.00
2022-09-26T02:12:40.072Z,66.33
2022-09-26T02:15:45.150Z,65.67
2022-09-26T02:18:52.743Z,69.33
2022-09-26T02:21:56.269Z,69.33
2022-09-26T02:24:59.745Z,66.00
2022-09-26T02:28:03.500Z,68.33
2022-09-26T02:31:08.425Z,61.67
2022-09-26T02:34:10.852Z,66.67
2022-09-26T02:37:13.981Z,66.00
2022-09-26T02:40:16.738Z,69.00
2022-09-26T02:43:43.519Z,74.00
2022-09-26T02:47:07.739Z,71.67
2022-09-26T02:50:21.985Z,73.67
2022-09-26T02:53:53.455Z,70.00
2022-09-26T02:57:27.345Z,74.33
2022-09-26T03:01:06.058Z,78.75
2022-09-26T03:04:14.871Z,64.25
2022-09-26T03:07:27.082Z,75.50
2022-09-26T03:10:30.683Z,78.25
2022-09-26T03:13:38.201Z,77.00
2022-09-26T03:16:44.282Z,75.25
2022-09-26T03:19:50.228Z,76.50
2022-09-26T03:22:53.087Z,73.75
2022-09-26T03:26:04.640Z,74.25
2022-09-26T03:29:08.218Z,70.00
2022-09-26T03:32:11.426Z,72.50
2022-09-26T03:35:14.148Z,76.50
2022-09-26T03:38:16.435Z,77.50
2022-09-26T03:41:26.311Z,74.25
2022-09-26T03:44:47.184Z,73.75
2022-09-26T03:48:09.472Z,84.25
2022-09-26T03:51:13.410Z,76.00
2022-09-26T03:54:15.941Z,25.00
2022-09-26T03:57:18.433Z,80.00
2022-09-26T04:00:25.709Z,83.50
2022-09-26T04:03:27.946Z,76.75
2022-09-26T04:06:30.048Z,72.75
2022-09-26T04:09:34.625Z,77.75
2022-09-26T04:12:36.649Z,80.00
2022-09-26T04:15:38.978Z,78.50
2022-09-26T04:18:47.953Z,77.75
2022-09-26T04:21:52.198Z,73.00
2022-09-26T04:24:55.953Z,70.25
2022-09-26T04:27:59.192Z,80.25
2022-09-26T04:31:04.060Z,77.75
2022-09-26T04:34:06.968Z,82.00
2022-09-26T04:37:10.305Z,75.75
2022-09-26T04:40:12.713Z,76.75
2022-09-26T04:43:25.166Z,83.75
2022-09-26T04:46:30.905Z,79.25
2022-09-26T04:49:34.893Z,73.75
2022-09-26T04:52:37.301Z,74.67
2022-09-26T04:55:45.116Z,73.33
2022-09-26T04:58:47.604Z,77.75
2022-09-26T05:01:52.035Z,72.67
2022-09-26T05:05:00.573Z,78.33
2022-09-26T05:08:03.295Z,74.00
2022-09-26T05:11:05.854Z,71.00
2022-09-26T05:14:10.881Z,73.33
2022-09-26T05:17:15.070Z,74.33
2022-09-26T05:20:20.536Z,74.67
2022-09-26T05:23:53.651Z,70.00
2022-09-26T05:26:56.046Z,68.33
2022-09-26T05:29:58.421Z,70.67
2022-09-26T05:33:02.217Z,68.33
2022-09-26T05:36:05.600Z,71.33
2022-09-26T05:39:27.791Z,73.33
2022-09-26T05:42:30.142Z,68.67
2022-09-26T05:45:32.740Z,67.67
2022-09-26T05:48:39.047Z,76.00
2022-09-26T05:51:45.290Z,67.67
2022-09-26T05:54:52.117Z,76.00
2022-09-26T05:58:33.000Z,72.00
2022-09-26T06:01:58.654Z,75.00
2022-09-26T06:05:21.102Z,75.00
2022-09-26T06:08:42.174Z,67.00
2022-09-26T06:11:56.259Z,74.00
2022-09-26T06:14:58.742Z,70.67
2022-09-26T06:18:04.360Z,67.00
2022-09-26T06:21:09.496Z,75.67
2022-09-26T06:24:13.114Z,74.33
2022-09-26T06:27:17.006Z,81.33
2022-09-26T06:30:21.837Z,71.67
2022-09-26T06:33:24.348Z,70.33
2022-09-26T06:36:49.487Z,72.33
2022-09-26T06:39:56.983Z,74.00
2022-09-26T06:43:01.212Z,68.33
2022-09-26T06:46:22.238Z,68.33
2022-09-26T06:49:34.966Z,76.33
2022-09-26T06:52:44.189Z,73.67
2022-09-26T06:55:48.287Z,82.00
2022-09-26T06:58:52.056Z,79.00
2022-09-26T07:01:58.427Z,86.00
2022-09-26T07:05:27.152Z,80.00
2022-09-26T07:08:57.791Z,81.67
2022-09-26T07:12:14.509Z,80.67
2022-09-26T07:15:19.587Z,81.67
2022-09-26T07:18:22.568Z,82.00
2022-09-26T07:21:51.017Z,77.67
2022-09-26T07:25:12.206Z,81.00
2022-09-26T07:28:14.792Z,69.67
2022-09-26T07:31:26.733Z,65.00
2022-09-26T07:34:49.197Z,74.00
2022-09-26T07:37:52.963Z,69.00
2022-09-26T07:40:55.397Z,73.00
2022-09-26T07:47:40.194Z,65.67
2022-09-26T07:50:57.876Z,69.67
2022-09-26T07:54:11.068Z,69.25
2022-09-26T07:57:13.963Z,68.50
2022-09-26T08:00:30.280Z,69.75
2022-09-26T08:03:50.292Z,60.75
2022-09-26T08:07:03.367Z,67.50
2022-09-26T08:10:08.165Z,61.75
2022-09-26T08:13:30.353Z,65.25
2022-09-26T08:16:58.555Z,57.00
2022-09-26T08:20:01.634Z,56.25
2022-09-26T08:23:04.020Z,53.25
2022-09-26T08:26:07.163Z,57.75
2022-09-26T08:29:23.718Z,50.00
2022-09-26T08:32:32.248Z,53.50
2022-09-26T08:35:41.391Z,51.75
2022-09-26T08:39:03.150Z,44.75
2022-09-26T08:42:38.240Z,43.00
2022-09-26T08:46:19.135Z,44.75
2022-09-26T08:50:17.363Z,41.00
2022-09-26T08:53:22.833Z,41.75
2022-09-26T08:56:36.649Z,43.75
2022-09-26T08:59:43.564Z,43.75
2022-09-26T09:03:02.801Z,41.25
2022-09-26T09:06:12.116Z,40.50
2022-09-26T09:09:17.793Z,41.50
2022-09-26T09:12:51.967Z,37.00
2022-09-26T09:16:41.916Z,34.50
2022-09-26T09:20:19.643Z,30.50
2022-09-26T09:24:12.758Z,36.00
2022-09-26T09:27:55.137Z,31.75
2022-09-26T09:30:59.954Z,34.00
2022-09-26T09:34:32.366Z,33.00
2022-09-26T09:38:17.159Z,30.25
2022-09-26T09:41:45.625Z,32.75
2022-09-26T09:45:13.532Z,24.50
2022-09-26T09:48:15.695Z,29.25
2022-09-26T09:51:31.076Z,29.75
2022-09-26T09:55:08.040Z,29.00
2022-09-26T09:58:40.145Z,29.50
2022-09-26T10:01:43.963Z,23.25
2022-09-26T10:05:24.087Z,27.25
2022-09-26T10:08:34.903Z,26.67
2022-09-26T10:11:57.013Z,22.33
2022-09-26T10:15:20.676Z,27.75
2022-09-26T10:19:03.592Z,25.25
2022-09-26T10:22:15.339Z,24.33
2022-09-26T10:25:22.198Z,22.67
2022-09-26T10:28:30.102Z,24.00
2022-09-26T10:31:43.321Z,24.33
2022-09-26T10:35:19.926Z,26.67
2022-09-26T10:38:27.413Z,25.33
2022-09-26T10:41:42.283Z,25.33
2022-09-26T10:44:46.139Z,26.00
2022-09-26T10:48:12.276Z,30.00
2022-09-26T10:51:38.149Z,24.00
2022-09-26T10:54:46.697Z,28.50
2022-09-26T10:57:53.347Z,26.33
2022-09-26T11:01:00.198Z,25.00
2022-09-26T11:04:49.972Z,27.33
2022-09-26T11:08:32.647Z,28.00
2022-09-26T11:11:55.677Z,28.33
2022-09-26T11:15:06.328Z,31.33
2022-09-26T11:18:20.983Z,27.33
2022-09-26T11:21:42.855Z,22.00
2022-09-26T11:25:06.837Z,26.67
2022-09-26T11:28:15.509Z,20.00
2022-09-26T11:31:44.348Z,23.67
2022-09-26T11:35:06.123Z,22.00
2022-09-26T11:38:47.650Z,22.00
2022-09-26T11:42:21.350Z,27.00
2022-09-26T11:45:47.326Z,27.33
2022-09-26T11:49:23.479Z,30.67
2022-09-26T11:53:26.002Z,24.67
2022-09-26T11:56:50.073Z,24.33
2022-09-26T12:00:03.425Z,26.00
2022-09-26T12:03:43.569Z,24.67
2022-09-26T12:06:56.049Z,25.00
2022-09-26T12:10:04.044Z,29.67
2022-09-26T12:13:06.405Z,24.67
2022-09-26T12:16:12.653Z,29.00
2022-09-26T12:19:23.523Z,27.67
2022-09-26T12:22:37.060Z,24.67
2022-09-26T12:25:57.511Z,25.33
2022-09-26T12:29:02.405Z,26.00
2022-09-26T12:32:20.320Z,23.00
2022-09-26T12:36:00.140Z,21.67
2022-09-26T12:39:19.596Z,19.33
2022-09-26T12:42:41.295Z,16.67
2022-09-26T12:46:14.901Z,17.00
2022-09-26T12:49:45.354Z,18.00
2022-09-26T12:52:50.594Z,20.00
2022-09-26T12:56:06.977Z,18.67
2022-09-26T12:59:49.849Z,20.33
2022-09-26T13:03:31.461Z,22.33
2022-09-26T13:06:52.861Z,23.00
2022-09-26T13:10:27.100Z,21.67
2022-09-26T13:14:15.019Z,19.33
2022-09-26T13:17:21.436Z,22.67
2022-09-26T13:20:43.910Z,22.33
2022-09-26T13:24:13.291Z,22.00
2022-09-26T13:27:27.949Z,23.00
2022-09-26T13:30:35.681Z,22.67
2022-09-26T13:33:47.159Z,19.00
2022-09-26T13:36:49.859Z,18.00
2022-09-26T13:40:16.969Z,23.67
2022-09-26T13:43:38.396Z,22.00
2022-09-26T13:46:53.877Z,27.00
2022-09-26T13:50:24.283Z,19.33
2022-09-26T13:53:55.173Z,19.67
2022-09-26T13:56:57.290Z,24.33
2022-09-26T13:59:59.512Z,22.00
2022-09-26T14:03:10.467Z,25.33
2022-09-26T14:06:19.597Z,24.00
2022-09-26T14:09:27.846Z,21.00
2022-09-26T14:12:51.637Z,26.33
2022-09-26T14:16:05.226Z,21.00
2022-09-26T14:19:32.540Z,26.75
2022-09-26T14:22:37.593Z,23.75
2022-09-26T14:25:45.898Z,25.75
2022-09-26T14:28:56.375Z,27.50
2022-09-26T14:32:04.491Z,24.75
2022-09-26T14:35:20.996Z,28.25
2022-09-26T14:38:23.616Z,27.00
2022-09-26T14:41:29.290Z,27.75
2022-09-26T14:44:36.337Z,27.75
2022-09-26T14:48:06.789Z,24.25
2022-09-26T14:51:12.566Z,29.75
2022-09-26T14:54:24.439Z,25.50
2022-09-26T14:57:32.147Z,26.00
2022-09-26T15:00:40.499Z,29.25
2022-09-26T15:03:43.619Z,31.75
2022-09-26T15:07:17.995Z,28.25
2022-09-26T15:10:23.967Z,25.00
2022-09-26T15:13:37.107Z,28.00
2022-09-26T15:16:47.861Z,29.75
2022-09-26T15:19:55.703Z,28.75
2022-09-26T15:22:59.071Z,30.00
2022-09-26T15:26:02.852Z,27.25
2022-09-26T15:29:06.949Z,26.50
2022-09-26T15:32:20.349Z,28.25
2022-09-26T15:35:22.794Z,26.75
2022-09-26T15:38:25.030Z,29.75
2022-09-26T15:41:46.314Z,27.25
2022-09-26T15:44:58.644Z,24.50
2022-09-26T15:48:23.585Z,26.00
2022-09-26T15:51:35.861Z,28.75
2022-09-26T15:54:38.610Z,29.25
2022-09-26T15:57:40.827Z,30.25
2022-09-26T16:00:52.118Z,27.50
2022-09-26T16:03:57.359Z,33.75
2022-09-26T16:07:15.199Z,36.50
2022-09-26T16:10:22.634Z,31.00
2022-09-26T16:13:27.334Z,30.25
2022-09-26T16:16:34.588Z,33.50
2022-09-26T16:19:43.951Z,32.50
2022-09-26T16:22:51.149Z,34.50
2022-09-26T16:25:55.175Z,29.75
2022-09-26T16:28:58.744Z,24.50
2022-09-26T16:32:02.727Z,28.25
2022-09-26T16:35:15.761Z,25.50
2022-09-26T16:38:28.277Z,22.25
2022-09-26T16:42:01.283Z,23.75
2022-09-26T16:45:05.425Z,19.00
2022-09-26T16:48:46.153Z,21.00
2022-09-26T16:52:16.309Z,21.00
2022-09-26T16:55:18.833Z,19.50
2022-09-26T16:58:25.729Z,21.75
2022-09-26T17:01:46.501Z,22.00
2022-09-26T17:04:50.113Z,21.25
2022-09-26T17:07:52.226Z,21.00
2022-09-26T17:10:56.328Z,17.75
2022-09-26T17:13:59.857Z,19.25
2022-09-26T17:17:03.388Z,23.25
2022-09-26T17:20:06.066Z,21.00
2022-09-26T17:23:28.022Z,15.50
2022-09-26T17:26:34.962Z,21.25
2022-09-26T17:29:48.656Z,19.00
2022-09-26T17:32:52.381Z,18.50
2022-09-26T17:35:55.478Z,20.00
2022-09-26T17:39:02.451Z,15.25
2022-09-26T17:42:05.165Z,19.50
2022-09-26T17:45:07.621Z,18.50
2022-09-26T17:48:12.988Z,17.50
2022-09-26T17:51:16.579Z,20.00
2022-09-26T17:54:29.601Z,20.75
2022-09-26T17:57:38.197Z,22.50
2022-09-26T18:00:44.769Z,30.50
2022-09-26T18:03:47.730Z,27.50
2022-09-26T18:06:50.266Z,24.25
2022-09-26T18:09:52.671Z,31.25
2022-09-26T18:12:58.099Z,36.00
2022-09-26T18:16:01.385Z,35.25
2022-09-26T18:19:07.514Z,35.25
2022-09-26T18:22:21.659Z,33.50
2022-09-26T18:25:25.302Z,34.50
2022-09-26T18:28:27.593Z,33.25
2022-09-26T18:31:31.665Z,42.50
2022-09-26T18:34:33.755Z,36.25
2022-09-26T18:37:36.063Z,36.75
2022-09-26T18:40:42.346Z,36.75
2022-09-26T18:43:45.435Z,37.25
2022-09-26T18:46:49.213Z,36.50
2022-09-26T18:49:51.716Z,38.00
2022-09-26T18:52:53.937Z,36.50
2022-09-26T18:56:17.485Z,29.25
2022-09-26T18:59:19.603Z,42.75
2022-09-26T19:02:24.341Z,35.50
2022-09-26T19:05:32.327Z,33.75
2022-09-26T19:08:38.620Z,38.75
2022-09-26T19:11:41.720Z,37.00
2022-09-26T19:14:44.285Z,35.00
2022-09-26T19:17:46.821Z,37.25
2022-09-26T19:20:49.723Z,49.50
2022-09-26T19:23:52.513Z,39.00
2022-09-26T19:26:58.088Z,44.00
2022-09-26T19:30:05.445Z,43.25
2022-09-26T19:33:10.513Z,45.25
2022-09-26T19:36:15.272Z,38.25
2022-09-26T19:39:18.091Z,39.50
2022-09-26T19:42:21.122Z,44.00
2022-09-26T19:45:24.363Z,38.50
2022-09-26T19:48:38.825Z,39.75
2022-09-26T19:51:50.298Z,35.25
2022-09-26T19:54:52.882Z,36.25
2022-09-26T19:58:18.644Z,38.25
2022-09-26T20:01:23.049Z,46.50
2022-09-26T20:04:25.963Z,39.00
2022-09-26T20:07:28.239Z,40.50
2022-09-26T20:10:30.718Z,35.00
2022-09-26T20:13:52.936Z,31.25
2022-09-26T20:16:59.498Z,36.75
2022-09-26T20:20:04.022Z,40.25
2022-09-26T20:23:15.699Z,37.50
2022-09-26T20:26:18.698Z,42.00
2022-09-26T20:29:22.191Z,33.75
2022-09-26T20:32:25.229Z,36.50
2022-09-26T20:35:33.120Z,45.25
2022-09-26T20:38:41.698Z,37.25
2022-09-26T20:41:44.444Z,41.75
2022-09-26T20:44:47.985Z,41.00
2022-09-26T20:47:50.391Z,40.50
2022-09-26T20:50:53.036Z,43.75
2022-09-26T20:53:55.898Z,43.50
2022-09-26T20:56:58.973Z,41.50
2022-09-26T21:00:01.511Z,40.50
2022-09-26T21:03:04.159Z,38.00
2022-09-26T21:06:14.032Z,35.50
2022-09-26T21:09:18.656Z,44.25
2022-09-26T21:12:21.214Z,42.00
2022-09-26T21:15:25.300Z,40.25
2022-09-26T21:18:29.671Z,37.25
2022-09-26T21:21:31.952Z,43.00
2022-09-26T21:24:38.224Z,36.00
2022-09-26T21:27:40.754Z,32.75
2022-09-26T21:30:43.574Z,29.50
2022-09-26T21:33:46.074Z,40.25
2022-09-26T21:36:49.197Z,37.00
2022-09-26T21:39:51.294Z,37.50
2022-09-26T21:42:57.353Z,37.75
2022-09-26T21:45:59.583Z,37.00
2022-09-26T21:49:02.083Z,38.50
2022-09-26T21:52:10.628Z,29.75
2022-09-26T21:55:18.551Z,34.00
2022-09-26T21:58:26.145Z,33.75
2022-09-26T22:01:28.636Z,15.75
2022-09-26T22:04:30.958Z,33.50
2022-09-26T22:07:33.348Z,35.25
2022-09-26T22:10:35.975Z,35.25
2022-09-26T22:13:38.356Z,24.00
2022-09-26T22:16:40.845Z,26.25
2022-09-26T22:19:43.338Z,26.00
2022-09-26T22:22:45.550Z,31.25
2022-09-26T22:25:50.879Z,30.75
2022-09-26T22:28:53.251Z,37.75
2022-09-26T22:31:55.571Z,28.25
2022-09-26T22:34:57.625Z,33.00
2022-09-26T22:37:59.792Z,28.75
2022-09-26T22:41:04.359Z,34.00
2022-09-26T22:44:06.684Z,33.25
2022-09-26T22:47:08.750Z,27.00
2022-09-26T22:50:10.962Z,29.75
2022-09-26T22:53:13.267Z,28.50
2022-09-26T22:56:16.205Z,28.25
2022-09-26T22:59:18.299Z,33.00
2022-09-26T23:02:20.566Z,32.50
2022-09-26T23:05:22.617Z,24.00
2022-09-26T23:08:24.883Z,30.00
2022-09-26T23:11:27.986Z,29.50
2022-09-26T23:14:30.152Z,30.00
2022-09-26T23:17:33.120Z,33.25
2022-09-26T23:20:42.124Z,36.25
2022-09-26T23:23:45.881Z,33.00
2022-09-26T23:26:48.143Z,28.00
2022-09-26T23:29:50.176Z,29.25
2022-09-26T23:32:52.439Z,31.00
2022-09-26T23:35:58.455Z,32.75
2022-09-26T23:39:00.763Z,32.75
2022-09-26T23:42:03.246Z,27.50
2022-09-26T23:45:05.780Z,31.50
2022-09-26T23:48:08.528Z,33.00
2022-09-26T23:51:10.993Z,31.50
2022-09-26T23:54:13.217Z,31.75
2022-09-26T23:57:15.438Z,36.00
